sensor_id;sensor_type;location;lat;lon;timestamp;P1;durP1;ratioP1;P2;durP2;ratioP2
61644;SDS011;47553;52.428;13.382;2022-08-19T00:00:13;13.82;;;8.85;;
61644;SDS011;47553;52.428;13.382;2022-08-19T00:02:15;13.57;;;9.85;;
61644;SDS011;47553;52.428;13.382;2022-08-19T00:04:18;12.25;;;8.68;;
61644;SDS011;47553;52.428;13.382;2022-08-19T00:06:21;13.88;;;8.95;;
61644;SDS011;47553;52.428;13.382;2022-08-19T00:08:22;13.73;;;8.73;;
61644;SDS011;47553;52.428;13.382;2022-08-19T00:10:24;12.35;;;8.65;;
61644;SDS011;47553;52.428;13.382;2022-08-19T00:12:27;12.38;;;8.43;;
61644;SDS011;47553;52.428;13.382;2022-08-19T00:14:28;12.30;;;8.00;;
61644;SDS011;47553;52.428;13.382;2022-08-19T00:16:30;16.95;;;11.07;;
61644;SDS011;47553;52.428;13.382;2022-08-19T00:18:32;13.23;;;8.77;;
61644;SDS011;47553;52.428;13.382;2022-08-19T00:20:33;15.45;;;9.13;;
61644;SDS011;47553;52.428;13.382;2022-08-19T00:22:35;15.18;;;9.52;;
61644;SDS011;47553;52.428;13.382;2022-08-19T00:24:37;14.23;;;9.57;;
61644;SDS011;47553;52.428;13.382;2022-08-19T00:26:39;13.48;;;8.93;;
61644;SDS011;47553;52.428;13.382;2022-08-19T00:28:43;13.43;;;9.35;;
61644;SDS011;47553;52.428;13.382;2022-08-19T00:30:44;16.30;;;10.20;;
61644;SDS011;47553;52.428;13.382;2022-08-19T00:32:46;14.75;;;9.45;;
61644;SDS011;47553;52.428;13.382;2022-08-19T00:34:47;15.82;;;9.82;;
61644;SDS011;47553;52.428;13.382;2022-08-19T00:36:49;15.15;;;9.98;;
61644;SDS011;47553;52.428;13.382;2022-08-19T00:38:51;15.98;;;10.13;;
61644;SDS011;47553;52.428;13.382;2022-08-19T00:40:53;14.82;;;9.68;;
61644;SDS011;47553;52.428;13.382;2022-08-19T00:42:55;14.40;;;9.32;;
61644;SDS011;47553;52.428;13.382;2022-08-19T00:44:58;15.02;;;9.70;;
61644;SDS011;47553;52.428;13.382;2022-08-19T00:46:59;15.27;;;9.65;;
61644;SDS011;47553;52.428;13.382;2022-08-19T00:49:10;13.95;;;9.82;;
61644;SDS011;47553;52.428;13.382;2022-08-19T00:51:15;14.10;;;9.82;;
61644;SDS011;47553;52.428;13.382;2022-08-19T00:53:19;13.43;;;9.52;;
61644;SDS011;47553;52.428;13.382;2022-08-19T00:55:24;13.85;;;9.65;;
61644;SDS011;47553;52.428;13.382;2022-08-19T00:57:28;14.60;;;9.55;;
61644;SDS011;47553;52.428;13.382;2022-08-19T00:59:33;13.85;;;9.85;;
61644;SDS011;47553;52.428;13.382;2022-08-19T01:01:58;16.35;;;9.70;;
61644;SDS011;47553;52.428;13.382;2022-08-19T01:04:00;15.82;;;9.93;;
61644;SDS011;47553;52.428;13.382;2022-08-19T01:06:02;17.80;;;10.40;;
61644;SDS011;47553;52.428;13.382;2022-08-19T01:08:04;15.68;;;10.30;;
61644;SDS011;47553;52.428;13.382;2022-08-19T01:10:08;16.13;;;10.43;;
61644;SDS011;47553;52.428;13.382;2022-08-19T01:12:11;15.05;;;10.38;;
61644;SDS011;47553;52.428;13.382;2022-08-19T01:14:13;13.70;;;9.80;;
61644;SDS011;47553;52.428;13.382;2022-08-19T01:16:16;16.27;;;10.45;;
61644;SDS011;47553;52.428;13.382;2022-08-19T01:18:21;16.60;;;10.13;;
61644;SDS011;47553;52.428;13.382;2022-08-19T01:20:24;17.40;;;10.23;;
61644;SDS011;47553;52.428;13.382;2022-08-19T01:22:28;16.50;;;9.88;;
61644;SDS011;47553;52.428;13.382;2022-08-19T01:24:34;14.73;;;10.15;;
61644;SDS011;47553;52.428;13.382;2022-08-19T01:26:49;16.50;;;10.50;;
61644;SDS011;47553;52.428;13.382;2022-08-19T01:28:52;15.80;;;9.63;;
61644;SDS011;47553;52.428;13.382;2022-08-19T01:31:00;16.52;;;10.38;;
61644;SDS011;47553;52.428;13.382;2022-08-19T01:33:08;17.30;;;10.23;;
61644;SDS011;47553;52.428;13.382;2022-08-19T01:35:10;15.38;;;10.63;;
61644;SDS011;47553;52.428;13.382;2022-08-19T01:37:14;15.57;;;10.68;;
61644;SDS011;47553;52.428;13.382;2022-08-19T01:39:28;21.63;;;11.75;;
61644;SDS011;47553;52.428;13.382;2022-08-19T01:41:30;24.08;;;11.52;;
61644;SDS011;47553;52.428;13.382;2022-08-19T01:43:32;20.83;;;11.10;;
61644;SDS011;47553;52.428;13.382;2022-08-19T01:45:34;17.15;;;10.68;;
61644;SDS011;47553;52.428;13.382;2022-08-19T01:47:36;17.20;;;10.68;;
61644;SDS011;47553;52.428;13.382;2022-08-19T01:49:38;17.08;;;10.95;;
61644;SDS011;47553;52.428;13.382;2022-08-19T01:51:40;18.33;;;10.82;;
61644;SDS011;47553;52.428;13.382;2022-08-19T01:53:42;16.73;;;10.30;;
61644;SDS011;47553;52.428;13.382;2022-08-19T01:55:46;17.75;;;10.65;;
61644;SDS011;47553;52.428;13.382;2022-08-19T01:57:48;18.42;;;11.15;;
61644;SDS011;47553;52.428;13.382;2022-08-19T01:59:53;16.63;;;10.20;;
61644;SDS011;47553;52.428;13.382;2022-08-19T02:01:54;16.67;;;10.55;;
61644;SDS011;47553;52.428;13.382;2022-08-19T02:03:56;17.45;;;10.88;;
61644;SDS011;47553;52.428;13.382;2022-08-19T02:05:59;16.98;;;11.05;;
61644;SDS011;47553;52.428;13.382;2022-08-19T02:08:01;18.05;;;10.63;;
61644;SDS011;47553;52.428;13.382;2022-08-19T02:10:03;17.77;;;10.35;;
61644;SDS011;47553;52.428;13.382;2022-08-19T02:12:14;17.27;;;11.07;;
61644;SDS011;47553;52.428;13.382;2022-08-19T02:14:15;20.63;;;12.52;;
61644;SDS011;47553;52.428;13.382;2022-08-19T02:16:17;18.15;;;11.40;;
61644;SDS011;47553;52.428;13.382;2022-08-19T02:18:19;17.02;;;11.55;;
61644;SDS011;47553;52.428;13.382;2022-08-19T02:20:20;17.60;;;10.73;;
61644;SDS011;47553;52.428;13.382;2022-08-19T02:22:22;17.33;;;11.40;;
61644;SDS011;47553;52.428;13.382;2022-08-19T02:24:24;16.33;;;10.52;;
61644;SDS011;47553;52.428;13.382;2022-08-19T02:26:25;16.70;;;11.35;;
61644;SDS011;47553;52.428;13.382;2022-08-19T02:28:29;17.02;;;11.35;;
61644;SDS011;47553;52.428;13.382;2022-08-19T02:30:30;18.75;;;11.77;;
61644;SDS011;47553;52.428;13.382;2022-08-19T02:32:32;17.17;;;11.43;;
61644;SDS011;47553;52.428;13.382;2022-08-19T02:34:44;18.45;;;11.40;;
61644;SDS011;47553;52.428;13.382;2022-08-19T02:36:46;17.85;;;12.48;;
61644;SDS011;47553;52.428;13.382;2022-08-19T02:38:52;16.23;;;11.05;;
61644;SDS011;47553;52.428;13.382;2022-08-19T02:40:56;19.65;;;10.85;;
61644;SDS011;47553;52.428;13.382;2022-08-19T02:42:59;17.65;;;10.95;;
61644;SDS011;47553;52.428;13.382;2022-08-19T02:45:03;18.83;;;10.43;;
61644;SDS011;47553;52.428;13.382;2022-08-19T02:47:05;17.70;;;10.38;;
61644;SDS011;47553;52.428;13.382;2022-08-19T02:49:07;16.73;;;9.25;;
61644;SDS011;47553;52.428;13.382;2022-08-19T02:51:09;18.17;;;10.48;;
61644;SDS011;47553;52.428;13.382;2022-08-19T02:53:17;15.82;;;10.13;;
61644;SDS011;47553;52.428;13.382;2022-08-19T02:55:19;15.65;;;9.52;;
61644;SDS011;47553;52.428;13.382;2022-08-19T02:57:20;16.95;;;10.50;;
61644;SDS011;47553;52.428;13.382;2022-08-19T02:59:22;14.82;;;9.95;;
61644;SDS011;47553;52.428;13.382;2022-08-19T03:01:26;13.98;;;8.95;;
61644;SDS011;47553;52.428;13.382;2022-08-19T03:03:29;15.30;;;9.85;;
61644;SDS011;47553;52.428;13.382;2022-08-19T03:05:30;14.45;;;9.02;;
61644;SDS011;47553;52.428;13.382;2022-08-19T03:07:52;15.13;;;10.32;;
61644;SDS011;47553;52.428;13.382;2022-08-19T03:09:53;15.23;;;9.88;;
61644;SDS011;47553;52.428;13.382;2022-08-19T03:11:55;16.83;;;10.38;;
61644;SDS011;47553;52.428;13.382;2022-08-19T03:13:57;15.10;;;9.77;;
61644;SDS011;47553;52.428;13.382;2022-08-19T03:16:00;15.90;;;10.13;;
61644;SDS011;47553;52.428;13.382;2022-08-19T03:18:07;14.63;;;10.40;;
61644;SDS011;47553;52.428;13.382;2022-08-19T03:20:09;15.35;;;9.68;;
61644;SDS011;47553;52.428;13.382;2022-08-19T03:22:11;14.55;;;10.25;;
61644;SDS011;47553;52.428;13.382;2022-08-19T03:24:13;16.30;;;9.80;;
61644;SDS011;47553;52.428;13.382;2022-08-19T03:26:15;14.88;;;10.27;;
61644;SDS011;47553;52.428;13.382;2022-08-19T03:28:17;15.80;;;9.88;;
61644;SDS011;47553;52.428;13.382;2022-08-19T03:30:19;16.90;;;10.45;;
61644;SDS011;47553;52.428;13.382;2022-08-19T03:32:24;17.17;;;10.48;;
61644;SDS011;47553;52.428;13.382;2022-08-19T03:34:35;17.05;;;10.60;;
61644;SDS011;47553;52.428;13.382;2022-08-19T03:36:38;19.30;;;10.70;;
61644;SDS011;47553;52.428;13.382;2022-08-19T03:38:41;18.00;;;11.07;;
61644;SDS011;47553;52.428;13.382;2022-08-19T03:40:44;19.05;;;11.40;;
61644;SDS011;47553;52.428;13.382;2022-08-19T03:42:45;20.02;;;12.25;;
61644;SDS011;47553;52.428;13.382;2022-08-19T03:44:49;18.40;;;11.82;;
61644;SDS011;47553;52.428;13.382;2022-08-19T03:46:51;20.92;;;12.80;;
61644;SDS011;47553;52.428;13.382;2022-08-19T03:48:55;20.08;;;12.85;;
61644;SDS011;47553;52.428;13.382;2022-08-19T03:51:00;19.80;;;12.52;;
61644;SDS011;47553;52.428;13.382;2022-08-19T03:53:02;21.67;;;13.98;;
61644;SDS011;47553;52.428;13.382;2022-08-19T03:55:04;19.60;;;12.73;;
61644;SDS011;47553;52.428;13.382;2022-08-19T03:57:06;27.70;;;16.05;;
61644;SDS011;47553;52.428;13.382;2022-08-19T03:59:09;27.13;;;16.10;;
61644;SDS011;47553;52.428;13.382;2022-08-19T04:01:13;29.13;;;16.10;;
61644;SDS011;47553;52.428;13.382;2022-08-19T04:03:17;24.67;;;15.07;;
61644;SDS011;47553;52.428;13.382;2022-08-19T04:05:19;22.20;;;13.80;;
61644;SDS011;47553;52.428;13.382;2022-08-19T04:07:26;22.77;;;14.30;;
61644;SDS011;47553;52.428;13.382;2022-08-19T04:09:28;22.25;;;13.13;;
61644;SDS011;47553;52.428;13.382;2022-08-19T04:11:33;19.75;;;12.18;;
61644;SDS011;47553;52.428;13.382;2022-08-19T04:13:44;20.52;;;11.80;;
61644;SDS011;47553;52.428;13.382;2022-08-19T04:15:46;20.45;;;12.25;;
61644;SDS011;47553;52.428;13.382;2022-08-19T04:17:47;18.30;;;12.20;;
61644;SDS011;47553;52.428;13.382;2022-08-19T04:19:49;18.88;;;12.07;;
61644;SDS011;47553;52.428;13.382;2022-08-19T04:21:53;19.65;;;11.73;;
61644;SDS011;47553;52.428;13.382;2022-08-19T04:23:56;19.73;;;12.27;;
61644;SDS011;47553;52.428;13.382;2022-08-19T04:25:59;20.05;;;13.65;;
61644;SDS011;47553;52.428;13.382;2022-08-19T04:28:01;18.17;;;11.95;;
61644;SDS011;47553;52.428;13.382;2022-08-19T04:30:03;19.77;;;12.07;;
61644;SDS011;47553;52.428;13.382;2022-08-19T04:32:05;16.42;;;11.13;;
61644;SDS011;47553;52.428;13.382;2022-08-19T04:34:10;18.45;;;11.68;;
61644;SDS011;47553;52.428;13.382;2022-08-19T04:36:15;17.75;;;12.43;;
61644;SDS011;47553;52.428;13.382;2022-08-19T04:38:21;18.00;;;11.43;;
61644;SDS011;47553;52.428;13.382;2022-08-19T04:40:24;19.15;;;12.25;;
61644;SDS011;47553;52.428;13.382;2022-08-19T04:42:26;19.40;;;11.68;;
61644;SDS011;47553;52.428;13.382;2022-08-19T04:44:31;18.88;;;11.85;;
61644;SDS011;47553;52.428;13.382;2022-08-19T04:46:36;19.38;;;11.77;;
61644;SDS011;47553;52.428;13.382;2022-08-19T04:48:40;18.85;;;11.90;;
61644;SDS011;47553;52.428;13.382;2022-08-19T04:50:49;18.08;;;11.73;;
61644;SDS011;47553;52.428;13.382;2022-08-19T04:52:51;18.73;;;11.63;;
61644;SDS011;47553;52.428;13.382;2022-08-19T04:54:53;19.42;;;11.85;;
61644;SDS011;47553;52.428;13.382;2022-08-19T04:56:56;19.25;;;12.75;;
61644;SDS011;47553;52.428;13.382;2022-08-19T04:58:58;16.50;;;11.25;;
61644;SDS011;47553;52.428;13.382;2022-08-19T05:01:00;17.77;;;11.77;;
61644;SDS011;47553;52.428;13.382;2022-08-19T05:03:02;18.65;;;11.77;;
61644;SDS011;47553;52.428;13.382;2022-08-19T05:05:08;14.88;;;10.00;;
61644;SDS011;47553;52.428;13.382;2022-08-19T05:07:09;15.13;;;10.10;;
61644;SDS011;47553;52.428;13.382;2022-08-19T05:09:11;17.48;;;10.93;;
61644;SDS011;47553;52.428;13.382;2022-08-19T05:11:15;16.27;;;10.40;;
61644;SDS011;47553;52.428;13.382;2022-08-19T05:13:20;16.50;;;10.15;;
61644;SDS011;47553;52.428;13.382;2022-08-19T05:15:21;15.52;;;9.50;;
61644;SDS011;47553;52.428;13.382;2022-08-19T05:17:23;15.52;;;9.48;;
61644;SDS011;47553;52.428;13.382;2022-08-19T05:19:28;14.95;;;9.07;;
61644;SDS011;47553;52.428;13.382;2022-08-19T05:21:33;14.15;;;9.60;;
61644;SDS011;47553;52.428;13.382;2022-08-19T05:23:36;13.07;;;8.65;;
61644;SDS011;47553;52.428;13.382;2022-08-19T05:25:39;14.90;;;9.43;;
61644;SDS011;47553;52.428;13.382;2022-08-19T05:27:41;13.35;;;9.23;;
61644;SDS011;47553;52.428;13.382;2022-08-19T05:29:44;14.93;;;10.00;;
61644;SDS011;47553;52.428;13.382;2022-08-19T05:31:46;14.20;;;9.10;;
61644;SDS011;47553;52.428;13.382;2022-08-19T05:33:49;14.65;;;9.13;;
61644;SDS011;47553;52.428;13.382;2022-08-19T05:35:51;14.95;;;9.10;;
61644;SDS011;47553;52.428;13.382;2022-08-19T05:37:52;16.17;;;9.63;;
61644;SDS011;47553;52.428;13.382;2022-08-19T05:39:59;14.38;;;9.38;;
61644;SDS011;47553;52.428;13.382;2022-08-19T05:42:02;16.70;;;9.35;;
61644;SDS011;47553;52.428;13.382;2022-08-19T05:44:05;14.40;;;9.57;;
61644;SDS011;47553;52.428;13.382;2022-08-19T05:46:08;16.27;;;8.98;;
61644;SDS011;47553;52.428;13.382;2022-08-19T05:48:18;14.95;;;9.05;;
61644;SDS011;47553;52.428;13.382;2022-08-19T05:50:20;13.77;;;8.98;;
61644;SDS011;47553;52.428;13.382;2022-08-19T05:52:22;15.73;;;9.43;;
61644;SDS011;47553;52.428;13.382;2022-08-19T05:54:26;12.00;;;8.60;;
61644;SDS011;47553;52.428;13.382;2022-08-19T05:56:28;14.88;;;9.25;;
61644;SDS011;47553;52.428;13.382;2022-08-19T05:58:29;16.35;;;10.10;;
61644;SDS011;47553;52.428;13.382;2022-08-19T06:00:31;17.00;;;9.63;;
61644;SDS011;47553;52.428;13.382;2022-08-19T06:02:34;18.00;;;9.63;;
61644;SDS011;47553;52.428;13.382;2022-08-19T06:04:36;12.90;;;8.98;;
61644;SDS011;47553;52.428;13.382;2022-08-19T06:06:37;14.63;;;9.85;;
61644;SDS011;47553;52.428;13.382;2022-08-19T06:08:39;15.10;;;9.90;;
61644;SDS011;47553;52.428;13.382;2022-08-19T06:10:41;14.65;;;9.55;;
61644;SDS011;47553;52.428;13.382;2022-08-19T06:12:42;15.55;;;9.85;;
61644;SDS011;47553;52.428;13.382;2022-08-19T06:14:44;13.90;;;9.52;;
61644;SDS011;47553;52.428;13.382;2022-08-19T06:16:46;15.23;;;10.32;;
61644;SDS011;47553;52.428;13.382;2022-08-19T06:18:50;14.68;;;9.48;;
61644;SDS011;47553;52.428;13.382;2022-08-19T06:20:52;14.38;;;9.57;;
61644;SDS011;47553;52.428;13.382;2022-08-19T06:22:56;14.32;;;9.70;;
61644;SDS011;47553;52.428;13.382;2022-08-19T06:24:58;14.95;;;9.77;;
61644;SDS011;47553;52.428;13.382;2022-08-19T06:26:59;15.52;;;9.90;;
61644;SDS011;47553;52.428;13.382;2022-08-19T06:29:02;13.90;;;10.20;;
61644;SDS011;47553;52.428;13.382;2022-08-19T06:31:05;16.10;;;10.20;;
61644;SDS011;47553;52.428;13.382;2022-08-19T06:33:07;14.98;;;10.18;;
61644;SDS011;47553;52.428;13.382;2022-08-19T06:35:10;16.75;;;10.98;;
61644;SDS011;47553;52.428;13.382;2022-08-19T06:37:12;15.25;;;10.88;;
61644;SDS011;47553;52.428;13.382;2022-08-19T06:39:16;15.38;;;10.57;;
61644;SDS011;47553;52.428;13.382;2022-08-19T06:41:19;16.25;;;10.82;;
61644;SDS011;47553;52.428;13.382;2022-08-19T06:43:21;14.15;;;10.27;;
61644;SDS011;47553;52.428;13.382;2022-08-19T06:45:28;16.02;;;11.30;;
61644;SDS011;47553;52.428;13.382;2022-08-19T06:49:37;16.90;;;10.10;;
61644;SDS011;47553;52.428;13.382;2022-08-19T06:51:40;16.77;;;10.40;;
61644;SDS011;47553;52.428;13.382;2022-08-19T06:53:44;16.38;;;10.45;;
61644;SDS011;47553;52.428;13.382;2022-08-19T06:55:47;17.33;;;10.55;;
61644;SDS011;47553;52.428;13.382;2022-08-19T06:57:49;18.23;;;10.93;;
61644;SDS011;47553;52.428;13.382;2022-08-19T06:59:51;16.75;;;10.48;;
61644;SDS011;47553;52.428;13.382;2022-08-19T07:01:54;17.73;;;11.57;;
61644;SDS011;47553;52.428;13.382;2022-08-19T07:03:57;14.02;;;10.20;;
61644;SDS011;47553;52.428;13.382;2022-08-19T07:06:02;17.58;;;11.02;;
61644;SDS011;47553;52.428;13.382;2022-08-19T07:08:08;14.80;;;10.60;;
61644;SDS011;47553;52.428;13.382;2022-08-19T07:10:10;17.35;;;11.73;;
61644;SDS011;47553;52.428;13.382;2022-08-19T07:12:13;18.08;;;11.27;;
61644;SDS011;47553;52.428;13.382;2022-08-19T07:14:16;16.15;;;10.90;;
61644;SDS011;47553;52.428;13.382;2022-08-19T07:16:20;18.60;;;11.50;;
61644;SDS011;47553;52.428;13.382;2022-08-19T07:18:29;18.08;;;11.32;;
61644;SDS011;47553;52.428;13.382;2022-08-19T07:20:31;17.55;;;11.13;;
61644;SDS011;47553;52.428;13.382;2022-08-19T07:22:32;16.60;;;11.02;;
61644;SDS011;47553;52.428;13.382;2022-08-19T07:24:36;17.20;;;10.90;;
61644;SDS011;47553;52.428;13.382;2022-08-19T07:26:43;17.30;;;11.52;;
61644;SDS011;47553;52.428;13.382;2022-08-19T07:28:45;15.07;;;10.70;;
61644;SDS011;47553;52.428;13.382;2022-08-19T07:30:53;17.35;;;10.60;;
61644;SDS011;47553;52.428;13.382;2022-08-19T07:32:55;17.42;;;11.95;;
61644;SDS011;47553;52.428;13.382;2022-08-19T07:34:57;16.52;;;10.65;;
61644;SDS011;47553;52.428;13.382;2022-08-19T07:36:59;20.13;;;11.15;;
61644;SDS011;47553;52.428;13.382;2022-08-19T07:39:02;18.20;;;11.65;;
61644;SDS011;47553;52.428;13.382;2022-08-19T07:41:08;18.08;;;11.38;;
61644;SDS011;47553;52.428;13.382;2022-08-19T07:43:11;16.95;;;11.45;;
61644;SDS011;47553;52.428;13.382;2022-08-19T07:45:18;19.83;;;12.75;;
61644;SDS011;47553;52.428;13.382;2022-08-19T07:47:19;17.40;;;11.43;;
61644;SDS011;47553;52.428;13.382;2022-08-19T07:49:41;18.08;;;12.02;;
61644;SDS011;47553;52.428;13.382;2022-08-19T07:51:43;18.65;;;11.85;;
61644;SDS011;47553;52.428;13.382;2022-08-19T07:53:45;19.45;;;12.02;;
61644;SDS011;47553;52.428;13.382;2022-08-19T07:55:48;17.08;;;11.63;;
61644;SDS011;47553;52.428;13.382;2022-08-19T07:57:51;15.98;;;10.68;;
61644;SDS011;47553;52.428;13.382;2022-08-19T07:59:52;17.55;;;11.60;;
61644;SDS011;47553;52.428;13.382;2022-08-19T08:01:54;20.40;;;14.55;;
61644;SDS011;47553;52.428;13.382;2022-08-19T08:03:57;19.40;;;11.45;;
61644;SDS011;47553;52.428;13.382;2022-08-19T08:05:59;16.33;;;11.80;;
61644;SDS011;47553;52.428;13.382;2022-08-19T08:08:00;19.05;;;12.50;;
61644;SDS011;47553;52.428;13.382;2022-08-19T08:10:03;18.20;;;11.82;;
61644;SDS011;47553;52.428;13.382;2022-08-19T08:12:07;18.88;;;11.85;;
61644;SDS011;47553;52.428;13.382;2022-08-19T08:14:33;18.85;;;12.38;;
61644;SDS011;47553;52.428;13.382;2022-08-19T08:16:37;18.02;;;12.63;;
61644;SDS011;47553;52.428;13.382;2022-08-19T08:18:47;20.80;;;14.27;;
61644;SDS011;47553;52.428;13.382;2022-08-19T08:20:53;22.70;;;15.50;;
61644;SDS011;47553;52.428;13.382;2022-08-19T08:22:55;37.00;;;23.88;;
61644;SDS011;47553;52.428;13.382;2022-08-19T08:24:59;17.73;;;12.05;;
61644;SDS011;47553;52.428;13.382;2022-08-19T08:27:02;22.10;;;13.43;;
61644;SDS011;47553;52.428;13.382;2022-08-19T08:29:11;18.55;;;13.23;;
61644;SDS011;47553;52.428;13.382;2022-08-19T08:31:14;17.58;;;13.77;;
61644;SDS011;47553;52.428;13.382;2022-08-19T08:33:17;17.17;;;12.05;;
61644;SDS011;47553;52.428;13.382;2022-08-19T08:35:33;20.55;;;13.48;;
61644;SDS011;47553;52.428;13.382;2022-08-19T08:37:35;20.00;;;14.32;;
61644;SDS011;47553;52.428;13.382;2022-08-19T08:39:37;21.23;;;13.25;;
61644;SDS011;47553;52.428;13.382;2022-08-19T08:41:40;20.35;;;13.98;;
61644;SDS011;47553;52.428;13.382;2022-08-19T08:43:48;18.17;;;12.82;;
61644;SDS011;47553;52.428;13.382;2022-08-19T08:45:53;19.27;;;13.02;;
61644;SDS011;47553;52.428;13.382;2022-08-19T08:48:02;19.88;;;15.00;;
61644;SDS011;47553;52.428;13.382;2022-08-19T08:50:25;20.33;;;14.02;;
61644;SDS011;47553;52.428;13.382;2022-08-19T08:52:34;20.85;;;13.02;;
61644;SDS011;47553;52.428;13.382;2022-08-19T08:54:44;18.13;;;12.80;;
61644;SDS011;47553;52.428;13.382;2022-08-19T08:56:55;19.85;;;13.02;;
61644;SDS011;47553;52.428;13.382;2022-08-19T08:58:58;18.52;;;13.65;;
61644;SDS011;47553;52.428;13.382;2022-08-19T09:01:02;28.83;;;19.38;;
61644;SDS011;47553;52.428;13.382;2022-08-19T09:03:07;49.05;;;31.50;;
61644;SDS011;47553;52.428;13.382;2022-08-19T09:05:15;31.60;;;22.35;;
61644;SDS011;47553;52.428;13.382;2022-08-19T09:07:25;22.63;;;14.30;;
61644;SDS011;47553;52.428;13.382;2022-08-19T09:09:39;19.27;;;14.15;;
61644;SDS011;47553;52.428;13.382;2022-08-19T09:11:50;22.63;;;14.35;;
61644;SDS011;47553;52.428;13.382;2022-08-19T09:14:01;21.42;;;14.75;;
61644;SDS011;47553;52.428;13.382;2022-08-19T09:16:30;20.73;;;15.15;;
61644;SDS011;47553;52.428;13.382;2022-08-19T09:18:40;21.23;;;14.40;;
61644;SDS011;47553;52.428;13.382;2022-08-19T09:20:44;22.38;;;14.18;;
61644;SDS011;47553;52.428;13.382;2022-08-19T09:22:46;22.92;;;15.02;;
61644;SDS011;47553;52.428;13.382;2022-08-19T09:24:48;20.88;;;15.40;;
61644;SDS011;47553;52.428;13.382;2022-08-19T09:26:50;20.15;;;14.35;;
61644;SDS011;47553;52.428;13.382;2022-08-19T09:28:53;22.98;;;15.68;;
61644;SDS011;47553;52.428;13.382;2022-08-19T09:30:54;32.45;;;22.02;;
61644;SDS011;47553;52.428;13.382;2022-08-19T09:32:56;22.30;;;15.02;;
61644;SDS011;47553;52.428;13.382;2022-08-19T09:34:59;21.45;;;14.88;;
61644;SDS011;47553;52.428;13.382;2022-08-19T09:37:03;23.63;;;16.27;;
61644;SDS011;47553;52.428;13.382;2022-08-19T09:39:05;27.30;;;18.20;;
61644;SDS011;47553;52.428;13.382;2022-08-19T09:41:17;20.38;;;14.30;;
61644;SDS011;47553;52.428;13.382;2022-08-19T09:43:20;20.65;;;14.25;;
61644;SDS011;47553;52.428;13.382;2022-08-19T09:45:34;20.30;;;14.02;;
61644;SDS011;47553;52.428;13.382;2022-08-19T09:47:36;22.83;;;14.25;;
61644;SDS011;47553;52.428;13.382;2022-08-19T09:49:40;21.60;;;14.43;;
61644;SDS011;47553;52.428;13.382;2022-08-19T09:51:44;23.30;;;13.95;;
61644;SDS011;47553;52.428;13.382;2022-08-19T09:53:51;20.70;;;14.27;;
61644;SDS011;47553;52.428;13.382;2022-08-19T09:55:54;21.30;;;14.95;;
61644;SDS011;47553;52.428;13.382;2022-08-19T09:57:56;19.23;;;13.40;;
61644;SDS011;47553;52.428;13.382;2022-08-19T09:59:58;18.75;;;13.32;;
61644;SDS011;47553;52.428;13.382;2022-08-19T10:01:59;20.92;;;13.55;;
61644;SDS011;47553;52.428;13.382;2022-08-19T10:04:11;20.77;;;14.80;;
61644;SDS011;47553;52.428;13.382;2022-08-19T10:06:20;20.70;;;15.35;;
61644;SDS011;47553;52.428;13.382;2022-08-19T10:08:44;20.52;;;13.48;;
61644;SDS011;47553;52.428;13.382;2022-08-19T10:12:52;18.27;;;12.77;;
61644;SDS011;47553;52.428;13.382;2022-08-19T10:14:54;19.05;;;13.57;;
61644;SDS011;47553;52.428;13.382;2022-08-19T10:16:55;20.08;;;13.00;;
61644;SDS011;47553;52.428;13.382;2022-08-19T10:18:59;17.63;;;12.75;;
61644;SDS011;47553;52.428;13.382;2022-08-19T10:21:05;18.42;;;12.80;;
61644;SDS011;47553;52.428;13.382;2022-08-19T10:23:11;17.90;;;12.73;;
61644;SDS011;47553;52.428;13.382;2022-08-19T10:25:14;18.02;;;12.75;;
61644;SDS011;47553;52.428;13.382;2022-08-19T10:27:16;23.45;;;15.30;;
61644;SDS011;47553;52.428;13.382;2022-08-19T10:29:17;24.05;;;15.65;;
61644;SDS011;47553;52.428;13.382;2022-08-19T10:31:33;19.38;;;12.80;;
61644;SDS011;47553;52.428;13.382;2022-08-19T10:33:55;18.42;;;12.18;;
61644;SDS011;47553;52.428;13.382;2022-08-19T10:35:59;19.48;;;12.45;;
61644;SDS011;47553;52.428;13.382;2022-08-19T10:38:01;20.55;;;12.57;;
61644;SDS011;47553;52.428;13.382;2022-08-19T10:40:04;18.55;;;12.63;;
61644;SDS011;47553;52.428;13.382;2022-08-19T10:42:08;19.30;;;12.70;;
61644;SDS011;47553;52.428;13.382;2022-08-19T10:44:11;21.67;;;14.45;;
61644;SDS011;47553;52.428;13.382;2022-08-19T10:46:14;18.92;;;12.98;;
61644;SDS011;47553;52.428;13.382;2022-08-19T10:48:17;19.63;;;13.00;;
61644;SDS011;47553;52.428;13.382;2022-08-19T10:50:19;19.40;;;12.50;;
61644;SDS011;47553;52.428;13.382;2022-08-19T10:52:28;20.75;;;13.90;;
61644;SDS011;47553;52.428;13.382;2022-08-19T10:54:33;20.13;;;12.70;;
61644;SDS011;47553;52.428;13.382;2022-08-19T10:56:35;20.58;;;12.80;;
61644;SDS011;47553;52.428;13.382;2022-08-19T10:58:38;18.83;;;12.88;;
61644;SDS011;47553;52.428;13.382;2022-08-19T11:00:40;23.08;;;14.73;;
61644;SDS011;47553;52.428;13.382;2022-08-19T11:02:42;18.80;;;13.13;;
61644;SDS011;47553;52.428;13.382;2022-08-19T11:04:43;18.15;;;12.57;;
61644;SDS011;47553;52.428;13.382;2022-08-19T11:06:47;19.23;;;12.48;;
61644;SDS011;47553;52.428;13.382;2022-08-19T11:08:49;26.90;;;18.75;;
61644;SDS011;47553;52.428;13.382;2022-08-19T11:10:51;20.40;;;12.90;;
61644;SDS011;47553;52.428;13.382;2022-08-19T11:12:53;16.35;;;11.68;;
61644;SDS011;47553;52.428;13.382;2022-08-19T11:14:57;20.55;;;12.85;;
61644;SDS011;47553;52.428;13.382;2022-08-19T11:16:59;16.10;;;11.25;;
61644;SDS011;47553;52.428;13.382;2022-08-19T11:19:01;17.13;;;11.73;;
61644;SDS011;47553;52.428;13.382;2022-08-19T11:21:06;18.05;;;13.13;;
61644;SDS011;47553;52.428;13.382;2022-08-19T11:23:09;16.17;;;11.45;;
61644;SDS011;47553;52.428;13.382;2022-08-19T11:25:11;18.73;;;12.02;;
61644;SDS011;47553;52.428;13.382;2022-08-19T11:27:13;17.55;;;12.00;;
61644;SDS011;47553;52.428;13.382;2022-08-19T11:29:15;17.73;;;12.10;;
61644;SDS011;47553;52.428;13.382;2022-08-19T11:31:21;17.40;;;12.30;;
61644;SDS011;47553;52.428;13.382;2022-08-19T11:33:29;17.77;;;11.90;;
61644;SDS011;47553;52.428;13.382;2022-08-19T11:35:31;18.73;;;11.48;;
61644;SDS011;47553;52.428;13.382;2022-08-19T11:37:32;16.30;;;11.02;;
61644;SDS011;47553;52.428;13.382;2022-08-19T11:39:34;16.40;;;11.55;;
61644;SDS011;47553;52.428;13.382;2022-08-19T11:41:37;15.68;;;11.35;;
61644;SDS011;47553;52.428;13.382;2022-08-19T11:43:38;17.83;;;10.60;;
61644;SDS011;47553;52.428;13.382;2022-08-19T11:45:40;17.70;;;11.15;;
61644;SDS011;47553;52.428;13.382;2022-08-19T11:47:43;16.55;;;10.73;;
61644;SDS011;47553;52.428;13.382;2022-08-19T11:49:45;18.20;;;12.07;;
61644;SDS011;47553;52.428;13.382;2022-08-19T11:51:47;14.82;;;10.38;;
61644;SDS011;47553;52.428;13.382;2022-08-19T11:53:49;21.45;;;14.00;;
61644;SDS011;47553;52.428;13.382;2022-08-19T11:55:52;17.63;;;11.20;;
61644;SDS011;47553;52.428;13.382;2022-08-19T11:57:54;16.73;;;11.65;;
61644;SDS011;47553;52.428;13.382;2022-08-19T11:59:56;14.63;;;10.35;;